Time;durP1;ratioP1;P1;durP2;ratioP2;P2;SDS_P1;SDS_P2;PMS_P1;PMS_P2;Temp;Humidity;BMP_temperature;BMP_pressure;BME280_temperature;BME280_humidity;BME280_pressure;Samples;Min_cycle;Max_cycle;Signal;HPM_P1;HPM_P2
2021/10/12 00:00:10;;;;;;;80.55;43.40;;;;;;;7.26;100.00;98999.34;1601297;89;21472;-74
2021/10/12 00:02:42;;;;;;;73.37;42.30;;;;;;;7.23;100.00;98993.64;1598991;88;21456;-74
2021/10/12 00:05:11;;;;;;;73.95;42.93;;;;;;;7.21;100.00;98989.26;1598977;89;20976;-75
2021/10/12 00:07:44;;;;;;;72.80;43.63;;;;;;;7.18;100.00;98993.17;1599048;89;21487;-75
2021/10/12 00:10:12;;;;;;;75.47;44.08;;;;;;;7.14;100.00;98988.35;1600054;88;21504;-74
2021/10/12 00:12:41;;;;;;;76.87;44.53;;;;;;;7.12;100.00;98986.59;1599146;89;20932;-73
2021/10/12 00:15:13;;;;;;;75.52;44.35;;;;;;;7.08;100.00;98986.10;1598497;88;21033;-74
2021/10/12 00:17:41;;;;;;;72.62;44.15;;;;;;;7.06;100.00;98980.84;1599417;88;20909;-75
2021/10/12 00:20:11;;;;;;;72.20;43.42;;;;;;;7.04;100.00;98981.71;1598118;89;21496;-74
2021/10/12 00:22:41;;;;;;;68.57;41.58;;;;;;;7.01;100.00;98981.69;1599055;88;21497;-74
2021/10/12 00:25:10;;;;;;;82.15;48.15;;;;;;;7.00;100.00;98976.00;1601241;88;21028;-74
2021/10/12 00:27:39;;;;;;;85.00;50.90;;;;;;;7.02;100.00;98975.14;1597977;88;21100;-75
2021/10/12 00:30:12;;;;;;;87.40;53.25;;;;;;;7.02;100.00;98976.89;1599065;89;20960;-74
2021/10/12 00:32:41;;;;;;;91.85;51.35;;;;;;;6.99;100.00;98981.69;1600411;89;21512;-74
2021/10/12 00:35:10;;;;;;;81.05;46.40;;;;;;;6.95;100.00;98969.42;1596397;88;20937;-74
2021/10/12 00:37:39;;;;;;;68.33;44.03;;;;;;;6.92;100.00;98968.09;1597258;88;21507;-74
2021/10/12 00:40:09;;;;;;;66.10;40.60;;;;;;;6.88;100.00;98969.83;1600479;89;21137;-75
2021/10/12 00:42:38;;;;;;;61.98;39.80;;;;;;;6.85;100.00;98963.69;1594987;88;21546;-74
2021/10/12 00:45:10;;;;;;;64.77;38.98;;;;;;;6.82;100.00;98959.30;1597437;88;21607;-73
2021/10/12 00:47:40;;;;;;;63.25;40.40;;;;;;;6.80;100.00;98961.05;1596765;89;20976;-75
2021/10/12 00:50:09;;;;;;;65.92;39.00;;;;;;;6.75;100.00;98956.20;1599307;89;21047;-75
2021/10/12 00:52:38;;;;;;;66.55;38.28;;;;;;;6.71;100.00;98959.67;1599839;88;21988;-74
2021/10/12 00:55:08;;;;;;;60.67;36.68;;;;;;;6.68;100.00;98957.04;1598836;88;21535;-74
2021/10/12 00:57:37;;;;;;;69.25;36.00;;;;;;;6.67;100.00;98952.66;1598778;87;21528;-74
2021/10/12 01:00:07;;;;;;;60.23;36.80;;;;;;;6.69;100.00;98948.74;1599191;89;21008;-73
2021/10/12 01:02:37;;;;;;;64.22;38.45;;;;;;;6.68;100.00;98949.61;1602424;88;21095;-74
2021/10/12 01:05:07;;;;;;;64.67;38.00;;;;;;;6.65;100.00;98952.21;1596044;88;21115;-74
2021/10/12 01:07:38;;;;;;;70.03;39.40;;;;;;;6.60;100.00;98953.02;1594098;89;21441;-74
2021/10/12 01:10:08;;;;;;;64.65;37.73;;;;;;;6.55;100.00;98944.26;1599585;87;21484;-73
2021/10/12 01:12:37;;;;;;;56.50;36.33;;;;;;;6.51;100.00;98941.61;1594474;88;20944;-74
2021/10/12 01:15:08;;;;;;;57.17;36.05;;;;;;;6.49;100.00;98938.10;1596148;88;20941;-74
2021/10/12 01:17:40;;;;;;;61.20;36.17;;;;;;;6.47;100.00;98938.09;1597860;87;21121;-74
2021/10/12 01:20:12;;;;;;;57.90;36.77;;;;;;;6.46;100.00;98935.03;1598895;88;21007;-74
2021/10/12 01:22:51;;;;;;;59.90;35.48;;;;;;;6.46;100.00;98938.08;1598607;88;25173;-74
2021/10/12 01:25:17;;;;;;;76.20;36.73;;;;;;;6.47;100.00;98924.11;1597763;88;20993;-74
2021/10/12 01:32:04;;;;;;;63.28;35.03;;;;;;;6.56;100.00;98928.10;1598304;88;20973;-73
2021/10/12 01:34:33;;;;;;;61.83;35.20;;;;;;;6.57;100.00;98924.61;1597296;88;21524;-75
2021/10/12 01:37:01;;;;;;;57.15;35.28;;;;;;;6.55;100.00;98929.84;1598542;89;21527;-74
2021/10/12 01:39:30;;;;;;;58.90;36.95;;;;;;;6.57;100.00;98924.18;1597979;89;21535;-74
2021/10/12 01:41:58;;;;;;;65.55;37.40;;;;;;;6.58;100.00;98924.63;1599112;88;21021;-74
2021/10/12 01:44:26;;;;;;;55.73;34.43;;;;;;;6.58;100.00;98915.88;1598164;88;21200;-74
2021/10/12 01:46:54;;;;;;;56.90;34.55;;;;;;;6.60;100.00;98922.01;1598050;89;21001;-74
2021/10/12 01:49:22;;;;;;;59.35;35.75;;;;;;;6.66;100.00;98922.52;1598300;88;21013;-74
2021/10/12 01:51:51;;;;;;;61.42;36.00;;;;;;;6.67;100.00;98919.91;1598084;89;20993;-74
2021/10/12 01:54:21;;;;;;;58.08;35.25;;;;;;;6.69;100.00;98919.47;1598823;88;21037;-74
2021/10/12 01:56:51;;;;;;;73.90;39.67;;;;;;;6.69;100.00;98911.61;1600868;88;21448;-74
2021/10/12 01:59:19;;;;;;;69.35;41.65;;;;;;;6.71;100.00;98918.17;1599056;89;21000;-74
2021/10/12 02:01:48;;;;;;;75.28;44.23;;;;;;;6.69;100.00;98908.11;1599241;89;20982;-74
2021/10/12 02:04:16;;;;;;;85.35;46.83;;;;;;;6.67;100.00;98906.80;1599631;88;21489;-74
2021/10/12 02:06:45;;;;;;;87.22;48.08;;;;;;;6.66;100.00;98902.86;1598143;88;21551;-74
2021/10/12 02:09:15;;;;;;;82.55;47.70;;;;;;;6.63;100.00;98907.22;1597246;89;21582;-74
2021/10/12 02:11:49;;;;;;;82.17;47.50;;;;;;;6.59;100.00;98901.48;1599106;88;21560;-74
2021/10/12 02:14:19;;;;;;;73.85;42.13;;;;;;;6.56;100.00;98903.20;1598245;89;21029;-74
2021/10/12 02:16:47;;;;;;;68.20;41.23;;;;;;;6.54;100.00;98899.27;1598910;88;21036;-74
2021/10/12 02:19:16;;;;;;;66.07;38.25;;;;;;;6.53;100.00;98891.39;1598449;88;21565;-74
2021/10/12 02:21:45;;;;;;;55.50;36.48;;;;;;;6.53;100.00;98889.66;1598584;88;21134;-74
2021/10/12 02:24:16;;;;;;;60.15;36.70;;;;;;;6.58;100.00;98890.55;1600441;89;20988;-75
2021/10/12 02:26:46;;;;;;;64.30;36.58;;;;;;;6.59;100.00;98885.75;1598586;89;21579;-73
2021/10/12 02:29:16;;;;;;;62.85;37.20;;;;;;;6.61;100.00;98887.07;1598628;89;21081;-75
2021/10/12 02:31:46;;;;;;;58.65;35.30;;;;;;;6.60;100.00;98888.81;1599254;88;21060;-81
2021/10/12 02:34:15;;;;;;;60.08;36.00;;;;;;;6.61;100.00;98883.14;1598469;88;21777;-74
2021/10/12 02:36:51;;;;;;;56.73;35.40;;;;;;;6.63;100.00;98881.44;1590064;89;20997;-66
2021/10/12 02:39:20;;;;;;;56.35;35.63;;;;;;;6.61;100.00;98878.77;1587272;89;21461;-75
2021/10/12 02:41:48;;;;;;;51.75;32.90;;;;;;;6.60;100.00;98867.84;1593515;88;21074;-75
2021/10/12 02:44:16;;;;;;;54.90;34.10;;;;;;;6.59;100.00;98877.02;1597307;87;20996;-77
2021/10/12 02:46:45;;;;;;;57.73;34.73;;;;;;;6.63;100.00;98868.33;1604777;87;21147;-75
2021/10/12 02:49:15;;;;;;;60.38;35.90;;;;;;;6.63;100.00;98869.64;1603420;87;21469;-75
2021/10/12 02:51:47;;;;;;;56.23;33.75;;;;;;;6.61;100.00;98868.30;1602799;87;20981;-75
2021/10/12 02:54:15;;;;;;;58.98;33.73;;;;;;;6.59;100.00;98874.39;1604081;87;21046;-75
2021/10/12 02:56:47;;;;;;;57.65;36.95;;;;;;;6.54;100.00;98865.20;1603751;87;21038;-76
2021/10/12 02:59:16;;;;;;;62.95;38.25;;;;;;;6.52;100.00;98869.55;1602103;87;21134;-72
2021/10/12 03:01:45;;;;;;;61.90;37.08;;;;;;;6.51;100.00;98866.92;1603409;87;21504;-72
2021/10/12 03:04:15;;;;;;;61.18;35.03;;;;;;;6.50;100.00;98863.87;1602684;87;21473;-71
2021/10/12 03:06:44;;;;;;;62.58;34.40;;;;;;;6.53;100.00;98863.45;1603868;87;21046;-72
2021/10/12 03:09:12;;;;;;;56.85;34.27;;;;;;;6.57;100.00;98859.09;1602012;87;21006;-72
2021/10/12 03:11:43;;;;;;;63.28;34.90;;;;;;;6.60;100.00;98866.54;1603763;87;21978;-73
2021/10/12 03:14:12;;;;;;;61.75;35.85;;;;;;;6.63;100.00;98856.54;1603521;87;20926;-73
2021/10/12 03:16:40;;;;;;;59.00;36.63;;;;;;;6.64;100.00;98854.36;1604034;87;20986;-74
2021/10/12 03:19:11;;;;;;;65.42;37.73;;;;;;;6.65;100.00;98857.42;1603363;87;21469;-75
2021/10/12 03:21:48;;;;;;;74.42;39.70;;;;;;;6.65;100.00;98853.49;1602681;87;21492;-71
2021/10/12 03:24:10;;;;;;;63.80;40.85;;;;;;;6.67;100.00;98848.25;1602352;87;21123;-72
2021/10/12 03:26:38;;;;;;;70.42;43.25;;;;;;;6.70;100.00;98850.89;1602390;87;21011;-73
2021/10/12 03:29:07;;;;;;;71.35;44.48;;;;;;;6.74;100.00;98843.05;1596885;89;20929;-73
2021/10/12 03:31:36;;;;;;;70.90;41.48;;;;;;;6.79;100.00;98847.88;1601574;87;20997;-72
2021/10/12 03:34:04;;;;;;;71.10;41.58;;;;;;;6.82;100.00;98843.08;1603206;87;21202;-71
2021/10/12 03:36:32;;;;;;;63.38;38.90;;;;;;;6.84;100.00;98845.27;1601903;87;21125;-71
2021/10/12 03:39:01;;;;;;;58.45;38.48;;;;;;;6.85;100.00;98840.47;1601143;87;20982;-69
2021/10/12 03:41:29;;;;;;;64.15;38.88;;;;;;;6.85;100.00;98836.09;1601696;87;21485;-70
2021/10/12 03:43:57;;;;;;;61.35;38.23;;;;;;;6.86;100.00;98837.84;1600848;87;20942;-71
2021/10/12 03:46:26;;;;;;;59.80;39.10;;;;;;;6.89;100.00;98833.05;1601666;87;20997;-70
2021/10/12 03:48:55;;;;;;;97.57;66.62;;;;;;;6.94;100.00;98836.56;1602026;87;21129;-70
2021/10/12 03:51:27;;;;;;;115.20;75.47;;;;;;;6.99;100.00;98836.58;1600991;87;21065;-66
2021/10/12 03:53:55;;;;;;;100.65;69.25;;;;;;;7.00;100.00;98831.77;1600975;87;21009;-68
2021/10/12 03:56:23;;;;;;;96.63;56.58;;;;;;;7.00;100.00;98829.15;1600440;87;21674;-68
2021/10/12 03:58:53;;;;;;;85.75;52.45;;;;;;;6.99;100.00;98831.33;1599479;87;21564;-67
2021/10/12 04:01:21;;;;;;;90.67;52.27;;;;;;;6.82;100.00;98831.28;1601743;87;21112;-67
2021/10/12 04:03:51;;;;;;;86.40;51.40;;;;;;;6.74;100.00;98831.25;1601859;87;20910;-67
2021/10/12 04:06:20;;;;;;;86.35;52.67;;;;;;;6.67;100.00;98822.05;1601456;87;21438;-67
2021/10/12 04:08:48;;;;;;;88.95;53.50;;;;;;;6.62;100.00;98820.28;1602110;87;20941;-67
2021/10/12 04:11:17;;;;;;;94.95;53.30;;;;;;;6.59;100.00;98816.30;1602191;87;20993;-67
2021/10/12 04:13:46;;;;;;;85.35;52.80;;;;;;;6.57;100.00;98815.86;1601899;87;21480;-67
2021/10/12 04:16:18;;;;;;;86.80;52.88;;;;;;;6.55;100.00;98823.71;1601724;87;20998;-67
2021/10/12 04:18:45;;;;;;;92.02;52.60;;;;;;;6.53;100.00;98818.02;1601938;87;20974;-67
2021/10/12 04:21:14;;;;;;;101.40;53.10;;;;;;;6.50;100.00;98823.25;1601469;87;21042;-67
2021/10/12 04:23:43;;;;;;;90.62;52.58;;;;;;;6.49;100.00;98826.73;1602217;87;21042;-67
2021/10/12 04:26:14;;;;;;;89.58;52.73;;;;;;;6.44;100.00;98820.17;1602117;87;21457;-67
2021/10/12 04:28:43;;;;;;;86.47;51.90;;;;;;;6.42;100.00;98826.27;1602335;87;20981;-67
2021/10/12 04:31:12;;;;;;;90.03;50.95;;;;;;;6.40;100.00;98818.83;1601553;87;20978;-66
2021/10/12 04:33:41;;;;;;;98.47;52.08;;;;;;;6.37;100.00;98814.45;1602053;87;20913;-67
2021/10/12 04:36:10;;;;;;;88.30;51.23;;;;;;;6.35;100.00;98811.39;1601403;87;20914;-68
2021/10/12 04:38:38;;;;;;;86.97;52.88;;;;;;;6.34;100.00;98819.68;1600546;87;21460;-67
2021/10/12 04:41:08;;;;;;;93.10;52.40;;;;;;;6.31;100.00;98815.30;1600896;87;21528;-67
2021/10/12 04:43:37;;;;;;;89.70;54.60;;;;;;;6.30;100.00;98812.23;1600807;87;21489;-67
2021/10/12 04:46:06;;;;;;;90.05;54.33;;;;;;;6.29;100.00;98809.61;1601039;89;21555;-67
2021/10/12 04:48:35;;;;;;;97.05;56.13;;;;;;;6.27;100.00;98810.91;1600662;87;20945;-67
2021/10/12 04:51:03;;;;;;;93.85;53.92;;;;;;;6.27;100.00;98808.73;1599581;87;21480;-67
2021/10/12 04:53:31;;;;;;;85.67;51.18;;;;;;;6.26;100.00;98801.73;1600379;87;21504;-67
2021/10/12 04:56:00;;;;;;;83.42;49.88;;;;;;;6.27;100.00;98804.36;1600974;87;20993;-67
2021/10/12 04:58:29;;;;;;;89.67;49.93;;;;;;;6.33;100.00;98798.28;1600926;87;21684;-67
2021/10/12 05:00:57;;;;;;;92.47;49.93;;;;;;;6.38;100.00;98798.30;1601066;87;20998;-67
2021/10/12 05:03:25;;;;;;;92.60;55.03;;;;;;;6.40;100.00;98796.56;1601458;87;21821;-67
2021/10/12 05:05:53;;;;;;;95.87;56.58;;;;;;;6.42;100.00;98797.02;1601144;87;20941;-67
2021/10/12 05:08:21;;;;;;;90.83;55.20;;;;;;;6.46;100.00;98788.73;1599888;87;20933;-66
2021/10/12 05:10:49;;;;;;;92.85;54.55;;;;;;;6.50;100.00;98789.19;1601110;87;21002;-67
2021/10/12 05:13:17;;;;;;;86.40;53.40;;;;;;;6.54;100.00;98790.95;1601011;87;20989;-67
2021/10/12 05:15:49;;;;;;;79.67;50.43;;;;;;;6.59;100.00;98790.53;1600977;87;21095;-66
2021/10/12 05:18:21;;;;;;;77.53;46.95;;;;;;;6.64;100.00;98792.77;1601324;87;21465;-65
2021/10/12 05:20:49;;;;;;;73.83;45.43;;;;;;;6.71;100.00;98796.29;1600886;87;21516;-65
2021/10/12 05:23:20;;;;;;;73.33;44.20;;;;;;;6.80;100.00;98798.50;1600646;87;21454;-67
2021/10/12 05:25:48;;;;;;;70.55;42.85;;;;;;;6.87;100.00;98792.84;1600397;87;20914;-67
2021/10/12 05:28:16;;;;;;;71.33;41.13;;;;;;;6.92;100.00;98794.60;1600761;87;21124;-67
2021/10/12 05:30:45;;;;;;;64.32;39.20;;;;;;;6.97;100.00;98792.43;1601099;87;20945;-67
2021/10/12 05:33:19;;;;;;;66.90;39.95;;;;;;;7.02;100.00;98794.63;1601186;87;20978;-68
2021/10/12 05:35:48;;;;;;;70.90;40.80;;;;;;;7.06;100.00;98798.57;1600093;87;21500;-65
2021/10/12 05:38:16;;;;;;;72.47;40.65;;;;;;;7.13;100.00;98800.80;1598229;88;21518;-65
2021/10/12 05:40:44;;;;;;;69.72;40.63;;;;;;;7.17;100.00;98801.25;1597034;88;21782;-67
2021/10/12 05:43:12;;;;;;;67.65;39.20;;;;;;;7.21;100.00;98801.69;1599494;88;20974;-67
2021/10/12 05:45:41;;;;;;;64.37;37.33;;;;;;;7.26;100.00;98799.52;1599201;88;21477;-67
2021/10/12 05:48:11;;;;;;;58.50;36.85;;;;;;;7.31;100.00;98803.45;1598319;88;20949;-67
2021/10/12 05:50:46;;;;;;;72.45;36.68;;;;;;;7.35;100.00;98801.27;1599535;88;21469;-67
2021/10/12 05:53:23;;;;;;;62.25;34.67;;;;;;;7.40;100.00;98805.21;1599419;88;21134;-67
2021/10/12 06:00:58;;;;;;;56.37;31.15;;;;;;;7.46;100.00;98794.72;1599167;88;20989;-66
2021/10/12 06:03:26;;;;;;;74.42;31.27;;;;;;;7.48;100.00;98792.53;1599123;88;21033;-67
2021/10/12 06:05:54;;;;;;;49.27;30.15;;;;;;;7.50;100.00;98794.72;1599500;88;21501;-67
2021/10/12 06:08:23;;;;;;;52.58;30.57;;;;;;;7.51;100.00;98792.97;1599104;88;21506;-67
2021/10/12 06:10:51;;;;;;;63.17;30.90;;;;;;;7.53;100.00;98798.66;1599549;88;20898;-67
2021/10/12 06:13:18;;;;;;;55.65;30.62;;;;;;;7.55;100.00;98795.59;1599453;88;20938;-68
2021/10/12 06:15:47;;;;;;;46.73;30.15;;;;;;;7.60;100.00;98793.44;1599853;88;20953;-66
2021/10/12 06:18:15;;;;;;;183.25;41.50;;;;;;;7.60;100.00;98794.31;1599274;88;21437;-67
2021/10/12 06:20:44;;;;;;;59.10;29.37;;;;;;;7.62;100.00;98788.63;1599119;88;20950;-67
2021/10/12 06:23:13;;;;;;;57.13;29.95;;;;;;;7.66;100.00;98786.44;1599426;88;21014;-67
2021/10/12 06:25:45;;;;;;;73.90;32.10;;;;;;;7.66;100.00;98795.63;1599441;88;21485;-67
2021/10/12 06:28:15;;;;;;;52.08;31.33;;;;;;;7.67;100.00;98789.94;1585007;88;20960;-68
2021/10/12 06:30:43;;;;;;;49.58;29.70;;;;;;;7.64;100.00;98793.88;1592949;88;21256;-66
2021/10/12 06:33:12;;;;;;;54.23;30.20;;;;;;;7.62;100.00;98798.25;1599396;88;20950;-67
2021/10/12 06:35:40;;;;;;;50.88;31.42;;;;;;;7.60;100.00;98793.44;1600015;87;21532;-67
2021/10/12 06:38:09;;;;;;;54.77;32.03;;;;;;;7.60;100.00;98794.31;1600666;87;21565;-66
2021/10/12 06:40:37;;;;;;;51.42;31.07;;;;;;;7.58;100.00;98795.63;1601300;87;20958;-66
2021/10/12 06:43:05;;;;;;;50.08;31.17;;;;;;;7.56;100.00;98793.84;1600699;87;22104;-67
2021/10/12 06:45:33;;;;;;;51.90;30.23;;;;;;;7.56;100.00;98797.34;1600881;87;20926;-67
2021/10/12 06:48:01;;;;;;;50.00;30.85;;;;;;;7.58;100.00;98799.56;1600860;87;20962;-67
2021/10/12 06:50:28;;;;;;;55.98;33.48;;;;;;;7.63;100.00;98809.19;1600296;87;21522;-67
2021/10/12 06:52:56;;;;;;;55.50;34.70;;;;;;;7.64;100.00;98807.00;1601464;87;21493;-67
2021/10/12 06:55:26;;;;;;;63.92;36.03;;;;;;;7.66;100.00;98807.44;1600685;87;21116;-67
2021/10/12 06:57:55;;;;;;;64.20;37.60;;;;;;;7.70;100.00;98801.75;1601111;87;20939;-67
2021/10/12 07:00:22;;;;;;;62.48;37.45;;;;;;;7.74;100.00;98801.75;1601328;87;21001;-67
2021/10/12 07:02:50;;;;;;;94.80;37.55;;;;;;;7.76;100.00;98792.13;1601105;87;20970;-67
2021/10/12 07:05:17;;;;;;;65.25;36.95;;;;;;;7.81;100.00;98800.86;1601236;87;21476;-67
2021/10/12 07:07:45;;;;;;;56.33;33.83;;;;;;;7.84;100.00;98792.98;1601214;87;21793;-67
2021/10/12 07:10:15;;;;;;;57.70;34.65;;;;;;;7.87;100.00;98794.30;1600663;87;21536;-67
2021/10/12 07:12:43;;;;;;;75.00;34.63;;;;;;;7.91;100.00;98793.85;1599719;87;21572;-67
2021/10/12 07:15:11;;;;;;;66.20;33.25;;;;;;;7.94;100.00;98796.91;1601437;87;21493;-67
2021/10/12 07:17:39;;;;;;;50.78;32.33;;;;;;;8.00;100.00;98798.22;1601124;87;21521;-67
2021/10/12 07:20:09;;;;;;;48.28;32.00;;;;;;;8.05;100.00;98803.94;1601223;89;21151;-67
2021/10/12 07:22:37;;;;;;;64.00;32.98;;;;;;;8.07;100.00;98796.92;1601091;87;21026;-67
2021/10/12 07:25:06;;;;;;;59.35;31.75;;;;;;;8.11;100.00;98802.61;1601292;87;20979;-68
2021/10/12 07:27:34;;;;;;;56.70;31.52;;;;;;;8.12;100.00;98800.85;1600734;87;20910;-67
2021/10/12 07:30:05;;;;;;;51.68;29.92;;;;;;;8.14;100.00;98805.67;1601549;87;20990;-67
2021/10/12 07:32:34;;;;;;;87.20;31.02;;;;;;;8.18;100.00;98791.20;1590906;89;21114;-67
2021/10/12 07:35:05;;;;;;;49.35;28.10;;;;;;;8.25;100.00;98789.44;1593538;87;20943;-67
2021/10/12 07:37:34;;;;;;;53.58;27.67;;;;;;;8.30;100.00;98787.67;1592701;88;20942;-67
2021/10/12 07:40:03;;;;;;;38.28;25.82;;;;;;;8.39;100.00;98782.86;1592919;88;20930;-67
2021/10/12 07:42:31;;;;;;;35.80;24.80;;;;;;;8.45;100.00;98778.45;1575307;88;21007;-67
2021/10/12 07:44:59;;;;;;;38.25;24.57;;;;;;;8.53;100.00;98780.21;1593234;88;21107;-67
2021/10/12 07:47:27;;;;;;;32.60;22.45;;;;;;;8.60;100.00;98776.23;1592902;88;20903;-67
2021/10/12 07:49:56;;;;;;;37.65;21.70;;;;;;;8.67;100.00;98781.90;1592885;88;20982;-68
2021/10/12 07:52:24;;;;;;;135.45;29.20;;;;;;;8.75;100.00;98774.84;1592912;88;21047;-68
2021/10/12 07:55:11;;;;;;;46.83;21.70;;;;;;;8.81;100.00;98780.52;1591875;88;20986;-65
2021/10/12 07:57:22;;;;;;;29.67;20.05;;;;;;;8.85;100.00;98769.09;1590559;88;21134;-67
2021/10/12 07:59:49;;;;;;;32.98;21.33;;;;;;;8.91;100.00;98764.24;1592178;89;20950;-65
2021/10/12 08:02:17;;;;;;;35.80;21.25;;;;;;;8.96;100.00;98767.72;1592611;88;21105;-68
2021/10/12 08:04:47;;;;;;;31.27;19.40;;;;;;;9.01;100.00;98759.39;1592762;88;21600;-68
2021/10/12 08:07:14;;;;;;;68.80;21.25;;;;;;;9.06;100.00;98755.84;1593220;88;20986;-66
2021/10/12 08:09:42;;;;;;;42.78;22.40;;;;;;;9.13;100.00;98756.68;1592838;88;21451;-67
2021/10/12 08:12:10;;;;;;;43.23;22.00;;;;;;;9.16;100.00;98748.77;1593122;88;21451;-67
2021/10/12 08:14:41;;;;;;;34.25;20.92;;;;;;;9.19;100.00;98750.50;1593004;88;20983;-68
2021/10/12 08:17:07;;;;;;;37.05;21.05;;;;;;;9.23;100.00;98741.70;1592870;89;21446;-68
2021/10/12 08:19:35;;;;;;;36.90;20.70;;;;;;;9.26;100.00;98744.31;1592796;88;20902;-67
2021/10/12 08:22:05;;;;;;;36.53;20.57;;;;;;;9.28;100.00;98747.80;1593137;88;21502;-68
2021/10/12 08:24:33;;;;;;;35.33;21.93;;;;;;;9.30;100.00;98741.64;1592794;88;21441;-68
2021/10/12 08:27:01;;;;;;;33.38;20.80;;;;;;;9.33;100.00;98739.42;1593143;88;21527;-69
2021/10/12 08:29:28;;;;;;;32.08;19.95;;;;;;;9.36;100.00;98738.09;1592666;89;21534;-66
2021/10/12 08:31:57;;;;;;;33.18;21.02;;;;;;;9.40;100.00;98731.91;1592339;88;21533;-68
2021/10/12 08:34:25;;;;;;;34.13;20.52;;;;;;;9.43;100.00;98727.94;1593056;88;21118;-67
2021/10/12 08:36:53;;;;;;;32.23;19.87;;;;;;;9.46;100.00;98736.72;1597657;87;20989;-68
2021/10/12 08:39:29;;;;;;;32.80;20.90;;;;;;;9.51;100.00;98733.17;1601457;87;20970;-68
2021/10/12 08:41:51;;;;;;;30.25;20.08;;;;;;;9.57;100.00;98730.04;1599632;87;21554;-68
2021/10/12 08:44:19;;;;;;;33.02;20.08;;;;;;;9.61;100.00;98726.94;1600229;87;21002;-68
2021/10/12 08:46:48;;;;;;;29.55;18.87;;;;;;;9.69;100.00;98731.69;1600832;87;21449;-66
2021/10/12 08:49:16;;;;;;;31.33;20.25;;;;;;;9.74;100.00;98727.25;1600096;87;21038;-65
2021/10/12 08:51:44;;;;;;;45.70;20.50;;;;;;;9.81;100.00;98722.34;1601550;87;21464;-66
2021/10/12 08:54:14;;;;;;;34.40;18.73;;;;;;;9.90;100.00;98726.20;1601143;87;20990;-68
2021/10/12 08:56:42;;;;;;;33.92;19.17;;;;;;;9.99;100.00;98725.27;1599981;87;21507;-68
2021/10/12 08:59:09;;;;;;;30.77;18.67;;;;;;;10.06;100.00;98726.95;1601008;87;21227;-66
2021/10/12 09:02:00;;;;;;;29.87;19.30;;;;;;;10.13;100.00;98725.98;1600665;87;20985;-67
2021/10/12 09:04:40;;;;;;;34.95;20.00;;;;;;;10.20;100.00;98734.70;1600127;87;20938;-66
2021/10/12 09:07:20;;;;;;;25.62;17.45;;;;;;;10.25;100.00;98725.02;1601025;87;20966;-68
2021/10/12 09:09:47;;;;;;;29.00;19.25;;;;;;;10.31;100.00;98719.22;1600490;87;21025;-68
2021/10/12 09:12:15;;;;;;;28.42;19.02;;;;;;;10.36;100.00;98712.58;1581942;89;21120;-68
2021/10/12 09:14:57;;;;;;;28.92;18.85;;;;;;;10.40;100.00;98712.96;1600937;87;21021;-68
2021/10/12 09:17:34;;;;;;;25.12;17.40;;;;;;;10.44;100.00;98712.06;1601210;87;21016;-65
2021/10/12 09:20:13;;;;;;;26.37;17.17;;;;;;;10.52;100.00;98703.61;1601533;87;20938;-66
2021/10/12 09:23:12;;;;;;;28.38;17.27;;;;;;;10.59;100.00;98703.95;1598843;87;21517;-68
2021/10/12 09:25:44;;;;;;;24.85;16.45;;;;;;;10.67;100.00;98699.89;1601545;87;21107;-66
2021/10/12 09:28:25;;;;;;;27.80;16.37;;;;;;;10.73;100.00;98695.40;1600945;87;20914;-68
2021/10/12 09:30:54;;;;;;;30.30;17.70;;;;;;;10.80;100.00;98689.59;1601644;87;20938;-68
2021/10/12 09:33:22;;;;;;;27.67;17.30;;;;;;;10.88;100.00;98678.92;1601179;87;21687;-68
2021/10/12 09:35:50;;;;;;;26.50;16.60;;;;;;;10.95;100.00;98672.69;1601154;87;20953;-67
2021/10/12 09:38:19;;;;;;;66.15;19.50;;;;;;;11.02;100.00;98663.78;1592752;88;21148;-67
2021/10/12 09:40:48;;;;;;;35.43;16.60;;;;;;;11.10;100.00;98661.02;1592449;88;20968;-68
2021/10/12 09:43:21;;;;;;;34.53;16.12;;;;;;;11.17;100.00;98658.25;1592565;88;20903;-68
2021/10/12 09:45:48;;;;;;;25.27;16.10;;;;;;;11.24;100.00;98655.94;1590474;88;21510;-68
2021/10/12 09:48:33;;;;;;;20.05;14.80;;;;;;;11.32;100.00;98659.31;1592729;88;21042;-68
2021/10/12 09:51:12;;;;;;;25.40;16.30;;;;;;;11.40;100.00;98653.06;1592638;88;21932;-67
2021/10/12 09:53:43;;;;;;;25.82;14.73;;;;;;;11.47;100.00;98637.08;1592365;88;21485;-66
2021/10/12 09:56:11;;;;;;;27.45;14.93;;;;;;;11.55;100.00;98633.85;1592907;88;21510;-68
2021/10/12 09:58:41;;;;;;;22.52;14.95;;;;;;;11.64;100.00;98634.13;1592633;88;20986;-68
2021/10/12 10:01:09;;;;;;;21.52;14.25;;;;;;;11.72;100.00;98626.06;1592811;88;21054;-67
2021/10/12 10:03:37;;;;;;;26.35;15.20;;;;;;;11.83;100.00;98621.05;1593039;88;21119;-67
2021/10/12 10:06:11;;;;;;;25.88;14.03;;;;;;;11.92;100.00;98617.36;1592748;88;21454;-67
2021/10/12 10:08:42;;;;;;;50.73;16.97;;;;;;;12.02;100.00;98616.27;1593210;88;21511;-67
2021/10/12 10:11:11;;;;;;;20.50;12.33;;;;;;;12.14;100.00;98616.47;1592932;88;20895;-67
2021/10/12 10:13:40;;;;;;;17.48;10.90;;;;;;;12.23;100.00;98600.41;1592734;88;21047;-68
2021/10/12 10:16:09;;;;;;;19.23;12.00;;;;;;;12.35;100.00;98597.52;1592907;88;21133;-68
2021/10/12 10:18:39;;;;;;;21.02;12.85;;;;;;;12.47;100.00;98589.31;1592884;88;20934;-68
2021/10/12 10:21:07;;;;;;;17.67;11.43;;;;;;;12.62;100.00;98590.73;1593239;88;20990;-68
2021/10/12 10:24:08;;;;;;;14.28;9.78;;;;;;;12.79;100.00;98585.08;1593206;88;21537;-66
2021/10/12 10:26:34;;;;;;;15.03;10.45;;;;;;;12.96;100.00;98588.17;1592958;88;21032;-66
2021/10/12 10:29:23;;;;;;;13.95;10.08;;;;;;;13.20;100.00;98583.62;1574736;88;21104;-66
2021/10/12 10:31:56;;;;;;;19.00;10.98;;;;;;;13.41;100.00;98582.67;1592699;88;20990;-66
2021/10/12 10:34:37;;;;;;;17.27;12.03;;;;;;;13.59;100.00;98576.88;1592878;88;20926;-65
2021/10/12 10:37:21;;;;;;;18.87;12.28;;;;;;;13.71;100.00;98574.34;1593095;88;21041;-66
2021/10/12 10:39:59;;;;;;;28.62;15.90;;;;;;;13.80;100.00;98566.16;1592965;88;21028;-66
2021/10/12 10:42:44;;;;;;;28.95;16.65;;;;;;;13.88;100.00;98564.16;1593191;88;21136;-66
2021/10/12 10:45:11;;;;;;;26.60;16.62;;;;;;;14.03;100.00;98557.54;1592958;88;20963;-65
2021/10/12 10:47:47;;;;;;;23.98;14.85;;;;;;;14.14;100.00;98551.00;1593217;88;21450;-66
2021/10/12 10:50:27;;;;;;;28.55;15.58;;;;;;;14.26;100.00;98551.58;1592899;88;21523;-67
2021/10/12 10:52:59;;;;;;;26.62;14.78;;;;;;;14.35;100.00;98549.97;1591330;88;21077;-66
2021/10/12 10:55:33;;;;;;;15.70;9.65;;;;;;;14.39;100.00;98541.86;1592718;88;21891;-66
2021/10/12 10:58:19;;;;;;;15.55;10.23;;;;;;;14.44;100.00;98547.93;1592861;88;21039;-66
2021/10/12 11:00:56;;;;;;;19.82;11.43;;;;;;;14.40;100.00;98556.87;1587275;88;20990;-66
2021/10/12 11:03:34;;;;;;;16.75;10.20;;;;;;;14.33;100.00;98557.11;1592357;88;20930;-66
2021/10/12 11:06:18;;;;;;;16.65;9.48;;;;;;;14.30;100.00;98551.89;1593113;88;20938;-65
2021/10/12 11:09:01;;;;;;;17.27;9.08;;;;;;;14.27;100.00;98548.01;1593167;88;21922;-67
2021/10/12 11:11:34;;;;;;;15.90;9.43;;;;;;;14.29;100.00;98547.50;1593003;88;21473;-65
2021/10/12 11:14:03;;;;;;;16.60;11.20;;;;;;;14.33;100.00;98539.41;1593408;88;20930;-66
2021/10/12 11:16:35;;;;;;;15.83;9.25;;;;;;;14.40;100.00;98532.98;1593037;88;21036;-65
2021/10/12 11:19:04;;;;;;;19.65;10.75;;;;;;;14.48;100.00;98530.99;1593284;88;20930;-66
2021/10/12 11:21:33;;;;;;;41.42;12.03;;;;;;;14.60;100.00;98528.41;1592965;89;21983;-66
2021/10/12 11:24:02;;;;;;;40.67;12.28;;;;;;;14.68;100.00;98527.73;1592971;88;20995;-66
2021/10/12 11:26:31;;;;;;;20.10;11.30;;;;;;;14.76;100.00;98520.38;1592981;88;20891;-66
2021/10/12 11:29:03;;;;;;;15.13;9.85;;;;;;;14.86;99.61;98520.94;1593231;88;20942;-66
2021/10/12 11:31:30;;;;;;;35.55;12.75;;;;;;;14.92;96.94;98516.75;1593121;88;20986;-66
2021/10/12 11:34:01;;;;;;;21.77;10.72;;;;;;;14.95;95.52;98517.98;1592811;88;21142;-66
2021/10/12 11:36:31;;;;;;;19.12;10.80;;;;;;;14.96;94.13;98521.04;1593051;88;20887;-67